Time;durP1;ratioP1;P1;durP2;ratioP2;P2;SDS_P1;SDS_P2;PMS_P1;PMS_P2;Temp;Humidity;BMP_temperature;BMP_pressure;BME280_temperature;BME280_humidity;BME280_pressure;Samples;Min_cycle;Max_cycle;Signal;HPM_P1;HPM_P2
2021/03/25 00:01:23;;;;;;;22.55;15.15;;;12.00;53.70;;;;;;5075890;28;20086;-72
2021/03/25 00:03:51;;;;;;;25.05;14.65;;;11.90;53.80;;;;;;5075926;28;20088;-71
2021/03/25 00:06:18;;;;;;;21.02;14.93;;;11.90;54.40;;;;;;5057895;28;20595;-71
2021/03/25 00:08:44;;;;;;;19.00;14.15;;;11.80;53.90;;;;;;5075672;28;20025;-72
2021/03/25 00:11:10;;;;;;;23.67;14.13;;;11.90;54.20;;;;;;5075862;28;20482;-72
2021/03/25 00:13:36;;;;;;;25.67;14.93;;;11.90;54.70;;;;;;5075588;28;20028;-71
2021/03/25 00:16:03;;;;;;;23.50;14.30;;;11.90;53.90;;;;;;5074965;28;20034;-72
2021/03/25 00:18:30;;;;;;;29.08;14.77;;;11.80;53.80;;;;;;5075874;28;20082;-71
2021/03/25 00:20:56;;;;;;;22.50;13.80;;;11.80;54.00;;;;;;5075548;28;20052;-75
2021/03/25 00:23:22;;;;;;;20.13;13.77;;;11.70;54.20;;;;;;5075544;28;20029;-74
2021/03/25 00:25:48;;;;;;;20.20;13.20;;;11.70;54.40;;;;;;5075225;28;20082;-73
2021/03/25 00:28:17;;;;;;;20.88;13.98;;;11.90;54.30;;;;;;5075428;28;20029;-76
2021/03/25 00:30:43;;;;;;;26.75;15.13;;;11.80;54.20;;;;;;5075563;28;20081;-78
2021/03/25 00:33:11;;;;;;;23.48;14.77;;;11.80;54.10;;;;;;5075487;28;20378;-78
2021/03/25 00:35:38;;;;;;;22.63;14.13;;;11.70;54.60;;;;;;5075016;28;20036;-76
2021/03/25 00:38:04;;;;;;;22.50;14.90;;;11.60;54.50;;;;;;5075283;28;20500;-76
2021/03/25 00:40:30;;;;;;;24.42;14.32;;;11.60;54.20;;;;;;5075041;28;20052;-75
2021/03/25 00:42:56;;;;;;;22.83;14.60;;;11.60;54.40;;;;;;5075284;28;20052;-76
2021/03/25 00:45:22;;;;;;;20.95;14.68;;;11.60;54.60;;;;;;5075020;28;20021;-71
2021/03/25 00:47:47;;;;;;;21.20;14.48;;;11.50;54.40;;;;;;5074875;28;20116;-72
2021/03/25 00:50:23;;;;;;;22.27;13.82;;;11.50;54.70;;;;;;5074764;28;20484;-71
2021/03/25 00:52:48;;;;;;;23.65;14.07;;;11.40;54.60;;;;;;5074910;28;20029;-71
2021/03/25 00:55:14;;;;;;;20.13;14.43;;;11.40;54.70;;;;;;5074703;28;20035;-73
2021/03/25 00:57:40;;;;;;;21.90;14.15;;;11.30;54.90;;;;;;5074992;28;20508;-72
2021/03/25 01:00:06;;;;;;;23.98;13.95;;;11.30;54.90;;;;;;5074883;28;20023;-72
2021/03/25 01:02:32;;;;;;;21.65;13.48;;;11.20;54.60;;;;;;5074870;28;20032;-73
2021/03/25 01:04:57;;;;;;;23.05;14.38;;;11.20;55.00;;;;;;5074772;28;20020;-72
2021/03/25 01:07:25;;;;;;;27.90;13.82;;;11.10;55.10;;;;;;5074489;28;20033;-71
2021/03/25 01:09:51;;;;;;;20.63;14.00;;;11.10;55.20;;;;;;5074524;28;20020;-72
2021/03/25 01:12:17;;;;;;;21.20;13.50;;;11.10;55.00;;;;;;5074545;28;20094;-72
2021/03/25 01:17:29;;;;;;;18.52;13.60;;;11.00;55.20;;;;;;5074219;28;20043;-71
2021/03/25 01:19:54;;;;;;;18.58;12.57;;;11.00;55.20;;;;;;5074682;28;20049;-71
2021/03/25 01:22:20;;;;;;;18.83;11.75;;;11.10;55.40;;;;;;5074221;28;20422;-72
2021/03/25 01:24:46;;;;;;;17.90;12.70;;;11.20;55.20;;;;;;5074337;28;20028;-73
2021/03/25 01:27:12;;;;;;;18.15;13.10;;;11.20;54.90;;;;;;5073539;28;20517;-70
2021/03/25 01:29:38;;;;;;;18.73;11.52;;;11.10;54.80;;;;;;5074019;28;20024;-74
2021/03/25 01:32:04;;;;;;;16.25;11.55;;;11.10;54.70;;;;;;5074337;28;20435;-77
2021/03/25 01:34:29;;;;;;;18.30;11.88;;;11.20;55.20;;;;;;5074235;28;20048;-75
2021/03/25 01:36:55;;;;;;;15.98;12.05;;;11.10;54.90;;;;;;5073950;28;20059;-71
2021/03/25 01:39:21;;;;;;;20.00;12.40;;;11.00;54.90;;;;;;5073984;28;20493;-77
2021/03/25 01:41:46;;;;;;;18.80;11.85;;;11.00;55.00;;;;;;5073858;28;20039;-76
2021/03/25 01:44:34;;;;;;;24.60;12.77;;;10.90;54.80;;;;;;5074477;28;20020;-73
2021/03/25 01:47:00;;;;;;;19.48;11.50;;;10.90;55.10;;;;;;5074160;28;20040;-77
2021/03/25 01:49:26;;;;;;;16.23;11.52;;;10.90;54.80;;;;;;5074054;28;20096;-73
2021/03/25 01:52:03;;;;;;;17.67;10.95;;;10.90;54.50;;;;;;5073877;28;20056;-73
2021/03/25 01:55:06;;;;;;;18.05;10.77;;;10.80;54.80;;;;;;5073571;28;20166;-75
2021/03/25 01:57:31;;;;;;;16.00;10.82;;;10.90;54.70;;;;;;5073668;28;20060;-76
2021/03/25 02:00:34;;;;;;;16.17;10.93;;;10.90;54.60;;;;;;5073553;28;20419;-77
2021/03/25 02:03:12;;;;;;;14.63;10.07;;;10.90;54.50;;;;;;5073771;28;20045;-73
2021/03/25 02:06:02;;;;;;;16.15;10.85;;;10.90;54.40;;;;;;5075952;28;20381;-75
2021/03/25 02:08:49;;;;;;;18.70;11.10;;;11.00;54.40;;;;;;5073514;28;20033;-72
2021/03/25 02:11:26;;;;;;;16.55;10.23;;;11.00;54.30;;;;;;5073092;28;20029;-75
2021/03/25 02:14:01;;;;;;;16.77;11.00;;;10.90;54.00;;;;;;5072998;28;20029;-72
2021/03/25 02:16:37;;;;;;;17.83;10.23;;;10.90;54.10;;;;;;5073112;28;20449;-74
2021/03/25 02:19:27;;;;;;;16.77;10.63;;;10.80;54.40;;;;;;5056116;28;20115;-72
2021/03/25 02:22:08;;;;;;;17.50;10.85;;;10.70;54.30;;;;;;5073077;28;20075;-76
2021/03/25 02:24:36;;;;;;;17.60;11.15;;;10.80;54.40;;;;;;5073335;28;20059;-74
2021/03/25 02:27:21;;;;;;;17.60;11.20;;;10.80;54.60;;;;;;5073097;28;20032;-71
2021/03/25 02:29:58;;;;;;;17.38;11.75;;;10.80;54.40;;;;;;5072978;28;20028;-77
2021/03/25 02:32:38;;;;;;;16.55;12.60;;;10.80;54.30;;;;;;5055035;28;20467;-75
2021/03/25 02:35:13;;;;;;;18.55;12.18;;;10.70;54.20;;;;;;5072865;28;20052;-72
2021/03/25 02:37:44;;;;;;;18.05;12.30;;;10.70;54.20;;;;;;5073088;28;20086;-71
2021/03/25 02:40:14;;;;;;;16.27;11.52;;;10.70;54.40;;;;;;5072174;28;20027;-77
2021/03/25 02:42:45;;;;;;;20.67;11.10;;;10.60;54.60;;;;;;5073473;28;20047;-73
2021/03/25 02:45:20;;;;;;;22.67;12.23;;;10.60;54.50;;;;;;5073006;28;20446;-77
2021/03/25 02:47:48;;;;;;;15.45;10.98;;;10.60;54.50;;;;;;5073166;28;20039;-75
2021/03/25 02:50:23;;;;;;;17.17;11.50;;;10.50;54.70;;;;;;5073169;28;20082;-73
2021/03/25 02:52:55;;;;;;;15.10;11.05;;;10.60;54.60;;;;;;5073129;28;20029;-77
2021/03/25 02:55:21;;;;;;;16.17;11.25;;;10.60;54.50;;;;;;5073056;28;20077;-72
2021/03/25 02:58:04;;;;;;;18.65;11.65;;;10.50;54.40;;;;;;5073179;28;20036;-76
2021/03/25 03:00:47;;;;;;;24.35;10.95;;;10.40;55.00;;;;;;5073070;28;20050;-73
2021/03/25 03:03:24;;;;;;;19.88;12.23;;;10.30;54.80;;;;;;5056910;28;20108;-75
2021/03/25 03:05:52;;;;;;;21.73;11.32;;;10.30;54.80;;;;;;5073115;28;20058;-75
2021/03/25 03:08:44;;;;;;;18.00;11.80;;;10.20;54.90;;;;;;5072975;28;20073;-73
2021/03/25 03:11:15;;;;;;;22.00;12.23;;;10.30;54.80;;;;;;5053348;28;20390;-74
2021/03/25 03:13:46;;;;;;;16.88;11.43;;;10.20;54.80;;;;;;5073080;28;20496;-76
2021/03/25 03:16:39;;;;;;;15.77;11.20;;;10.30;55.00;;;;;;5055234;28;20504;-76
2021/03/25 03:19:31;;;;;;;19.45;11.80;;;10.30;55.10;;;;;;5072947;28;20036;-75
2021/03/25 03:21:59;;;;;;;15.50;11.02;;;10.30;54.90;;;;;;5072791;28;20433;-73
2021/03/25 03:24:26;;;;;;;13.43;10.45;;;10.40;54.80;;;;;;5073143;28;20351;-75
2021/03/25 03:27:00;;;;;;;20.58;11.50;;;10.40;54.60;;;;;;5072643;28;20020;-77
2021/03/25 03:29:27;;;;;;;17.00;11.20;;;10.40;54.40;;;;;;5073048;28;20369;-79
2021/03/25 03:32:34;;;;;;;16.98;11.05;;;10.50;54.60;;;;;;5072888;28;20048;-77
2021/03/25 03:35:08;;;;;;;17.20;10.15;;;10.50;54.20;;;;;;5072479;28;20029;-74
2021/03/25 03:37:38;;;;;;;17.08;10.15;;;10.50;53.90;;;;;;5072696;28;20028;-76
2021/03/25 03:40:34;;;;;;;16.13;10.88;;;10.50;53.90;;;;;;5072934;28;20100;-76
2021/03/25 03:43:04;;;;;;;14.52;10.35;;;10.50;53.60;;;;;;5070395;28;20520;-79
2021/03/25 03:45:31;;;;;;;15.98;9.95;;;10.40;53.60;;;;;;5072577;28;20033;-76
2021/03/25 03:48:04;;;;;;;17.08;10.95;;;10.40;54.00;;;;;;5073053;28;20078;-77
2021/03/25 03:50:36;;;;;;;13.13;9.43;;;10.50;53.80;;;;;;5073041;28;20039;-73
2021/03/25 03:53:02;;;;;;;16.63;10.82;;;10.40;53.50;;;;;;5076345;28;20028;-75
2021/03/25 03:55:30;;;;;;;17.02;10.52;;;10.40;53.70;;;;;;5076204;28;20023;-75
2021/03/25 03:58:21;;;;;;;16.02;9.90;;;10.40;53.50;;;;;;5076562;28;20036;-76
2021/03/25 04:01:11;;;;;;;16.02;10.15;;;10.50;53.70;;;;;;5076348;28;20029;-75
2021/03/25 04:03:46;;;;;;;15.07;9.77;;;10.60;53.50;;;;;;5076103;28;20043;-75
2021/03/25 04:06:24;;;;;;;13.23;9.38;;;10.60;53.30;;;;;;5076551;28;20090;-76
2021/03/25 04:09:05;;;;;;;15.27;10.13;;;10.70;53.20;;;;;;5075925;28;20020;-78
2021/03/25 04:11:36;;;;;;;13.38;9.68;;;10.70;53.10;;;;;;5075667;28;20024;-76
2021/03/25 04:14:08;;;;;;;16.40;10.18;;;10.70;53.10;;;;;;5075499;28;20378;-74
2021/03/25 04:16:55;;;;;;;15.35;10.13;;;10.50;53.10;;;;;;5075297;28;20481;-74
2021/03/25 04:19:32;;;;;;;17.13;9.50;;;10.50;53.30;;;;;;5075106;28;20082;-72
2021/03/25 04:22:03;;;;;;;19.00;10.15;;;10.40;53.50;;;;;;5075280;28;20108;-74
2021/03/25 04:24:32;;;;;;;18.23;10.43;;;10.30;53.40;;;;;;5075976;28;20033;-72
2021/03/25 04:27:10;;;;;;;14.43;10.10;;;10.10;53.40;;;;;;5075684;28;20090;-76
2021/03/25 04:29:58;;;;;;;14.23;10.18;;;10.00;53.80;;;;;;5057548;28;20390;-77
2021/03/25 04:32:24;;;;;;;16.42;9.35;;;9.90;54.40;;;;;;5075346;28;20354;-73
2021/03/25 04:34:51;;;;;;;18.77;9.73;;;9.90;54.70;;;;;;5075128;28;20020;-75
2021/03/25 04:37:18;;;;;;;16.58;9.18;;;9.80;54.50;;;;;;5074863;28;20106;-77
2021/03/25 04:39:45;;;;;;;15.65;8.63;;;9.80;54.70;;;;;;5075397;28;20032;-73
2021/03/25 04:42:11;;;;;;;19.30;9.48;;;9.80;54.50;;;;;;5075046;28;20031;-77
2021/03/25 04:44:45;;;;;;;14.05;8.73;;;9.70;54.60;;;;;;5075162;28;20047;-76
2021/03/25 04:47:27;;;;;;;17.98;8.93;;;9.70;54.40;;;;;;5074926;28;20035;-75
2021/03/25 04:50:02;;;;;;;17.63;9.52;;;9.60;54.80;;;;;;5075111;28;20063;-71
2021/03/25 04:52:31;;;;;;;14.90;9.27;;;9.60;54.50;;;;;;5074965;28;20025;-78
2021/03/25 04:55:23;;;;;;;15.52;9.50;;;9.60;54.00;;;;;;5074925;28;20399;-76
2021/03/25 04:57:56;;;;;;;12.60;9.50;;;9.70;54.20;;;;;;5056737;28;20060;-74
2021/03/25 05:00:30;;;;;;;12.88;9.15;;;9.70;53.90;;;;;;5074915;28;20100;-78
2021/03/25 05:02:56;;;;;;;17.52;9.52;;;9.60;54.10;;;;;;5074045;28;20478;-75
2021/03/25 05:05:27;;;;;;;15.45;9.75;;;9.60;54.10;;;;;;5075033;28;20027;-78
2021/03/25 05:08:06;;;;;;;14.93;9.40;;;9.70;54.20;;;;;;5075447;28;20020;-76
2021/03/25 05:10:59;;;;;;;16.67;9.10;;;9.80;54.20;;;;;;5076023;28;20024;-78
2021/03/25 05:13:31;;;;;;;14.32;9.60;;;9.70;54.00;;;;;;5074936;28;20533;-79
2021/03/25 05:22:46;;;;;;;18.88;9.38;;;9.60;54.00;;;;;;5242585;23;20139;-66
2021/03/25 05:25:23;;;;;;;14.07;9.25;;;9.50;53.60;;;;;;4937010;29;20043;-66
2021/03/25 05:27:58;;;;;;;14.43;9.10;;;9.50;53.60;;;;;;4937389;29;20716;-65
2021/03/25 05:30:28;;;;;;;16.80;9.85;;;9.50;53.60;;;;;;4936803;29;20028;-67
2021/03/25 05:33:00;;;;;;;18.40;9.15;;;9.50;53.70;;;;;;4937046;29;20024;-66
2021/03/25 05:35:31;;;;;;;15.20;9.23;;;9.50;53.80;;;;;;4937078;29;20127;-67
2021/03/25 05:37:57;;;;;;;13.20;8.85;;;9.60;53.60;;;;;;4936941;29;20032;-67
2021/03/25 05:40:28;;;;;;;17.60;8.23;;;9.70;53.40;;;;;;4919933;29;20536;-66
2021/03/25 05:43:19;;;;;;;14.73;8.25;;;9.80;53.10;;;;;;4936886;29;20038;-69
2021/03/25 05:45:53;;;;;;;12.73;8.13;;;9.90;53.10;;;;;;4936886;29;20511;-68
2021/03/25 05:48:49;;;;;;;10.77;8.30;;;9.90;53.00;;;;;;4936583;29;20031;-65
2021/03/25 05:52:01;;;;;;;19.20;8.68;;;9.80;52.80;;;;;;4936680;29;20087;-67
2021/03/25 05:55:01;;;;;;;13.65;8.93;;;9.90;52.90;;;;;;4928699;29;20036;-67
2021/03/25 05:57:39;;;;;;;16.98;9.27;;;10.00;51.70;;;;;;4936791;29;20111;-67
2021/03/25 06:00:07;;;;;;;16.00;9.52;;;10.10;51.40;;;;;;4936684;29;20027;-67
2021/03/25 06:02:37;;;;;;;16.88;8.38;;;10.20;51.20;;;;;;4936758;29;20106;-66
2021/03/25 06:05:05;;;;;;;9.32;6.82;;;10.30;51.10;;;;;;4919332;29;20067;-67
2021/03/25 06:07:42;;;;;;;11.98;7.80;;;10.40;50.60;;;;;;4936552;29;20122;-68
2021/03/25 06:10:28;;;;;;;14.48;7.65;;;10.50;50.20;;;;;;4919170;29;20087;-69
2021/03/25 06:13:24;;;;;;;11.73;7.28;;;10.50;49.70;;;;;;4936542;29;20030;-67
2021/03/25 06:16:25;;;;;;;14.57;8.07;;;10.80;50.00;;;;;;4936434;29;20122;-68
2021/03/25 06:18:59;;;;;;;18.38;7.70;;;11.00;49.40;;;;;;4905734;29;20039;-67
2021/03/25 06:21:43;;;;;;;19.75;8.30;;;11.10;48.70;;;;;;4936236;29;20472;-66
2021/03/25 06:24:43;;;;;;;14.73;8.18;;;11.30;48.70;;;;;;4918762;29;20070;-69
2021/03/25 06:27:30;;;;;;;15.48;8.25;;;11.30;48.40;;;;;;4923849;29;20503;-67
2021/03/25 06:30:02;;;;;;;14.60;8.30;;;11.40;48.40;;;;;;4936156;29;20028;-69
2021/03/25 06:32:51;;;;;;;16.70;8.60;;;11.50;47.60;;;;;;4936039;29;20364;-66
2021/03/25 06:35:31;;;;;;;14.27;7.78;;;11.60;46.80;;;;;;4935955;29;20067;-67
2021/03/25 06:38:10;;;;;;;16.67;8.00;;;11.80;46.90;;;;;;4936290;29;20055;-68
2021/03/25 06:40:50;;;;;;;12.32;7.78;;;11.90;46.20;;;;;;4936162;29;20063;-67
2021/03/25 06:43:29;;;;;;;14.88;6.70;;;12.00;46.10;;;;;;4936069;29;20505;-73
2021/03/25 06:46:03;;;;;;;15.57;6.70;;;12.10;46.20;;;;;;4935880;29;20090;-67
2021/03/25 06:48:43;;;;;;;19.38;7.70;;;12.20;45.90;;;;;;4936053;29;20027;-69
2021/03/25 06:51:21;;;;;;;12.02;7.45;;;12.30;46.40;;;;;;4935984;29;20031;-70
2021/03/25 06:53:48;;;;;;;10.60;6.22;;;12.50;45.50;;;;;;4936157;29;20417;-72
2021/03/25 06:56:17;;;;;;;13.93;6.38;;;12.50;44.90;;;;;;4919023;29;20046;-68
2021/03/25 06:58:55;;;;;;;12.90;6.47;;;12.40;44.50;;;;;;4935759;29;20036;-70
2021/03/25 07:01:28;;;;;;;11.57;7.43;;;12.50;44.60;;;;;;4935656;29;20068;-71
2021/03/25 07:03:58;;;;;;;16.23;7.80;;;12.50;45.10;;;;;;4935998;29;20024;-69
2021/03/25 07:06:29;;;;;;;11.90;7.38;;;12.70;45.30;;;;;;4935858;29;20267;-68
2021/03/25 07:08:55;;;;;;;13.80;6.80;;;12.70;44.40;;;;;;4935829;29;20066;-69
2021/03/25 07:11:24;;;;;;;13.18;6.60;;;12.80;44.40;;;;;;4935452;29;20032;-70
2021/03/25 07:14:03;;;;;;;15.00;7.50;;;12.80;44.40;;;;;;4935690;29;20054;-68
2021/03/25 07:16:31;;;;;;;15.15;7.50;;;12.90;44.60;;;;;;4935515;29;20164;-69
2021/03/25 07:19:06;;;;;;;13.90;7.15;;;12.90;44.10;;;;;;4935691;29;20079;-70
2021/03/25 07:21:35;;;;;;;15.38;7.47;;;12.90;44.00;;;;;;4935698;29;20031;-71
2021/03/25 07:24:05;;;;;;;9.73;6.53;;;12.90;44.20;;;;;;4935416;29;20048;-74
2021/03/25 07:26:38;;;;;;;13.07;6.60;;;13.00;44.00;;;;;;4937958;29;20476;-75
2021/03/25 07:29:19;;;;;;;12.25;6.25;;;13.10;44.10;;;;;;4939605;29;20036;-74
2021/03/25 07:31:54;;;;;;;11.15;6.72;;;13.20;43.90;;;;;;4939805;29;20372;-74
2021/03/25 07:34:28;;;;;;;13.20;6.65;;;13.20;43.60;;;;;;4939633;29;20024;-75
2021/03/25 07:36:56;;;;;;;12.32;7.55;;;13.20;43.40;;;;;;4939763;29;20485;-75
2021/03/25 07:39:28;;;;;;;13.77;7.38;;;13.30;43.50;;;;;;4939335;29;20083;-75
2021/03/25 07:41:56;;;;;;;14.90;6.90;;;13.40;43.30;;;;;;4939503;29;20039;-75
2021/03/25 07:44:25;;;;;;;15.70;7.40;;;13.30;43.20;;;;;;4939417;29;20519;-75
2021/03/25 07:46:55;;;;;;;13.68;7.38;;;13.50;43.80;;;;;;4922084;29;20043;-75
2021/03/25 07:49:23;;;;;;;10.60;6.43;;;13.60;43.90;;;;;;4939367;29;20035;-75
2021/03/25 07:51:58;;;;;;;11.60;6.38;;;13.80;43.00;;;;;;4939357;29;20031;-75
2021/03/25 07:54:42;;;;;;;14.30;6.60;;;13.60;42.40;;;;;;4938814;29;20499;-70
2021/03/25 07:57:17;;;;;;;11.23;6.28;;;13.60;41.80;;;;;;4938773;29;20071;-69
2021/03/25 07:59:45;;;;;;;12.25;6.88;;;13.60;41.70;;;;;;4938634;29;20035;-72
2021/03/25 08:02:25;;;;;;;13.95;6.80;;;13.60;42.20;;;;;;4938766;29;20388;-68
2021/03/25 08:04:51;;;;;;;15.60;7.70;;;13.50;42.00;;;;;;4938549;29;20071;-69
2021/03/25 08:07:18;;;;;;;11.25;7.72;;;13.50;42.60;;;;;;4938748;29;20504;-68
2021/03/25 08:09:57;;;;;;;18.63;7.72;;;13.60;43.00;;;;;;4938600;29;20024;-72
2021/03/25 08:12:32;;;;;;;13.40;7.15;;;13.60;42.80;;;;;;4938626;29;20575;-68
2021/03/25 08:15:16;;;;;;;16.17;8.25;;;13.70;43.20;;;;;;4938646;29;20086;-67
2021/03/25 08:17:45;;;;;;;13.80;8.45;;;13.80;42.40;;;;;;4938550;29;20103;-67
2021/03/25 08:20:20;;;;;;;16.00;7.55;;;13.70;43.40;;;;;;4938456;29;20116;-69
2021/03/25 08:23:05;;;;;;;20.23;8.32;;;13.70;42.80;;;;;;4938095;29;20035;-70
2021/03/25 08:25:40;;;;;;;15.75;8.13;;;13.80;42.90;;;;;;4938223;29;20028;-68
2021/03/25 08:28:24;;;;;;;12.98;7.65;;;13.80;43.20;;;;;;4937927;29;20035;-70
2021/03/25 08:31:09;;;;;;;15.85;7.53;;;13.80;44.00;;;;;;4938074;29;20036;-68
2021/03/25 08:33:49;;;;;;;15.65;8.38;;;13.80;43.80;;;;;;4938433;29;20430;-68
2021/03/25 08:36:24;;;;;;;13.68;7.95;;;13.80;44.30;;;;;;4938048;29;20417;-67
2021/03/25 08:39:14;;;;;;;14.13;8.60;;;13.90;44.50;;;;;;4937192;29;20406;-70
2021/03/25 08:41:46;;;;;;;17.13;8.98;;;13.90;44.70;;;;;;4937917;29;20043;-68
2021/03/25 08:44:21;;;;;;;20.98;9.40;;;14.00;44.70;;;;;;4938200;29;20107;-68
2021/03/25 08:46:55;;;;;;;14.65;8.20;;;14.00;44.70;;;;;;4937884;29;20047;-69
2021/03/25 08:49:25;;;;;;;;;;;14.00;45.50;;;;;;4938206;29;20038;-69
2021/03/25 08:51:51;;;;;;;14.68;8.63;;;14.00;45.30;;;;;;4937455;29;20019;-67
2021/03/25 08:54:34;;;;;;;16.85;8.60;;;14.10;45.50;;;;;;4938023;29;20034;-68
2021/03/25 08:57:06;;;;;;;10.77;6.03;;;14.10;45.90;;;;;;4937756;29;20047;-68
2021/03/25 08:59:45;;;;;;;16.70;8.32;;;14.10;46.40;;;;;;4937726;29;20038;-67
2021/03/25 09:02:35;;;;;;;15.63;8.10;;;14.20;46.50;;;;;;4937606;29;20091;-69
2021/03/25 09:05:09;;;;;;;13.32;8.13;;;14.20;46.50;;;;;;4937685;29;20110;-68
2021/03/25 09:07:36;;;;;;;15.02;7.85;;;14.30;46.70;;;;;;4937553;29;20137;-69
2021/03/25 09:10:13;;;;;;;12.80;8.05;;;14.30;47.00;;;;;;4937618;29;20035;-73
2021/03/25 09:12:39;;;;;;;15.68;8.80;;;14.30;47.00;;;;;;4937412;29;20100;-70
2021/03/25 09:15:07;;;;;;;18.92;9.00;;;14.40;47.00;;;;;;4937818;29;20111;-74
2021/03/25 09:17:50;;;;;;;17.85;8.77;;;14.40;47.30;;;;;;4937268;29;20130;-70
2021/03/25 09:20:26;;;;;;;15.02;8.00;;;14.50;47.40;;;;;;4937478;29;20115;-68
2021/03/25 09:22:56;;;;;;;15.80;9.45;;;14.60;47.70;;;;;;4936954;29;20032;-68
2021/03/25 09:25:25;;;;;;;13.38;7.88;;;14.70;47.70;;;;;;4936998;29;20457;-69
2021/03/25 09:28:05;;;;;;;16.02;7.75;;;14.80;47.90;;;;;;4937090;29;20492;-68
2021/03/25 09:30:36;;;;;;;17.02;8.55;;;14.80;48.10;;;;;;4937038;29;20522;-69
2021/03/25 09:33:54;;;;;;;18.15;8.52;;;14.90;47.80;;;;;;4937092;29;20031;-68
2021/03/25 09:36:19;;;;;;;15.07;8.25;;;15.00;47.80;;;;;;4894889;29;20412;-68
2021/03/25 09:38:48;;;;;;;17.77;8.40;;;15.00;48.00;;;;;;4937116;29;20024;-68
2021/03/25 09:41:18;;;;;;;12.80;7.28;;;15.10;47.80;;;;;;4936741;29;20028;-68
2021/03/25 09:43:44;;;;;;;15.73;8.00;;;15.20;47.50;;;;;;4936754;29;20038;-68
2021/03/25 09:46:25;;;;;;;11.95;7.50;;;15.20;47.50;;;;;;4936645;29;20032;-67
2021/03/25 09:48:53;;;;;;;11.77;7.43;;;15.20;47.30;;;;;;4936916;29;20028;-68
2021/03/25 09:51:22;;;;;;;14.70;7.35;;;15.30;47.40;;;;;;4936954;29;20028;-68
2021/03/25 09:53:57;;;;;;;16.33;6.82;;;15.40;47.10;;;;;;4936759;29;20063;-67
2021/03/25 09:56:27;;;;;;;15.10;8.68;;;15.50;46.70;;;;;;4936537;29;20101;-68
2021/03/25 09:58:54;;;;;;;14.43;7.70;;;15.50;46.70;;;;;;4936092;29;20551;-68
2021/03/25 10:01:41;;;;;;;23.60;7.10;;;15.60;47.00;;;;;;4936298;29;20027;-69
2021/03/25 10:04:29;;;;;;;15.82;8.50;;;15.70;47.20;;;;;;4919208;29;20051;-69
2021/03/25 10:06:55;;;;;;;24.77;7.90;;;15.80;47.10;;;;;;4936297;29;20027;-68
2021/03/25 10:09:50;;;;;;;14.60;8.20;;;15.80;47.10;;;;;;4936526;29;20459;-72
2021/03/25 10:12:53;;;;;;;14.27;7.35;;;15.90;47.10;;;;;;4936232;29;20027;-72
2021/03/25 10:15:57;;;;;;;14.70;7.55;;;16.00;47.00;;;;;;4936178;29;20499;-74
2021/03/25 10:18:25;;;;;;;26.33;8.63;;;16.20;47.10;;;;;;4906905;29;20040;-71
2021/03/25 10:21:16;;;;;;;17.67;8.07;;;16.30;46.90;;;;;;4936256;29;20110;-71
2021/03/25 10:23:51;;;;;;;21.27;8.13;;;16.30;46.40;;;;;;4936792;29;20055;-76
2021/03/25 10:26:37;;;;;;;12.40;7.25;;;16.40;46.50;;;;;;4936641;29;20032;-75
2021/03/25 10:29:06;;;;;;;16.52;7.68;;;16.50;46.40;;;;;;4936365;29;20394;-76
2021/03/25 10:31:35;;;;;;;17.95;7.95;;;16.60;46.50;;;;;;4937281;29;20128;-72
2021/03/25 10:34:32;;;;;;;17.52;8.10;;;16.70;46.40;;;;;;4937573;29;20074;-71
2021/03/25 10:37:23;;;;;;;18.23;8.18;;;16.70;46.50;;;;;;4936116;29;20393;-70
2021/03/25 10:39:50;;;;;;;13.18;7.47;;;16.80;46.50;;;;;;4936011;29;20377;-70
2021/03/25 10:42:35;;;;;;;14.18;7.32;;;16.80;46.60;;;;;;4935606;29;20453;-69
2021/03/25 10:45:13;;;;;;;15.88;7.65;;;16.90;45.90;;;;;;4935719;29;20090;-70
2021/03/25 10:47:57;;;;;;;15.50;8.18;;;17.00;46.10;;;;;;4935747;29;20051;-71
2021/03/25 10:50:56;;;;;;;14.90;7.95;;;17.10;46.20;;;;;;4920206;29;20024;-73
2021/03/25 10:53:29;;;;;;;12.23;6.55;;;17.00;46.30;;;;;;4923254;29;20043;-75
2021/03/25 10:56:16;;;;;;;12.10;7.00;;;17.10;46.10;;;;;;4919208;29;20035;-71
2021/03/25 10:58:53;;;;;;;12.57;6.72;;;17.20;46.10;;;;;;4935868;29;20028;-73
2021/03/25 11:01:29;;;;;;;12.40;6.68;;;17.30;46.50;;;;;;4937569;29;20034;-74
2021/03/25 11:03:55;;;;;;;12.02;6.65;;;17.30;46.20;;;;;;4939955;29;20358;-74
2021/03/25 11:06:34;;;;;;;18.13;6.35;;;17.30;46.50;;;;;;4939860;29;20475;-71
2021/03/25 11:09:16;;;;;;;12.30;6.63;;;17.40;46.70;;;;;;4939770;29;20027;-70
2021/03/25 11:11:43;;;;;;;10.85;5.95;;;17.50;46.60;;;;;;4939873;29;20464;-73
2021/03/25 11:14:23;;;;;;;12.52;6.35;;;17.60;47.00;;;;;;4939421;29;20031;-69
2021/03/25 11:16:54;;;;;;;14.35;6.63;;;17.60;46.80;;;;;;4939450;29;20067;-72
2021/03/25 11:19:23;;;;;;;12.35;5.93;;;17.60;47.20;;;;;;4939351;29;20124;-71
2021/03/25 11:21:50;;;;;;;16.10;6.72;;;17.70;47.30;;;;;;4939251;29;20032;-71
2021/03/25 11:24:32;;;;;;;13.80;6.05;;;17.80;46.90;;;;;;4939204;29;20059;-70
2021/03/25 11:27:04;;;;;;;10.35;6.20;;;18.00;47.40;;;;;;4939373;29;20043;-70
2021/03/25 11:29:36;;;;;;;15.05;6.97;;;18.10;47.20;;;;;;4939484;29;20082;-70
2021/03/25 11:32:14;;;;;;;13.30;6.22;;;18.20;47.10;;;;;;4939194;29;20040;-73
2021/03/25 11:34:41;;;;;;;11.32;5.55;;;18.20;46.90;;;;;;4939130;29;20480;-74
2021/03/25 11:37:22;;;;;;;10.85;6.00;;;18.20;47.40;;;;;;4939010;29;20466;-76
2021/03/25 11:40:09;;;;;;;15.07;7.15;;;18.20;46.70;;;;;;4939074;29;20380;-73
2021/03/25 11:42:35;;;;;;;14.98;7.32;;;18.10;46.50;;;;;;4938985;29;20046;-71
2021/03/25 11:45:02;;;;;;;11.32;6.38;;;18.10;47.10;;;;;;4939322;29;20023;-70
2021/03/25 11:47:46;;;;;;;13.77;6.38;;;18.10;47.00;;;;;;4921810;29;20050;-71
2021/03/25 11:50:15;;;;;;;17.20;6.93;;;18.20;46.40;;;;;;4939013;29;20115;-74
2021/03/25 11:52:43;;;;;;;12.68;6.68;;;18.30;46.70;;;;;;4922021;29;20031;-73
2021/03/25 11:55:19;;;;;;;12.95;7.25;;;18.30;46.60;;;;;;4939935;29;20494;-71
2021/03/25 11:57:46;;;;;;;13.27;6.50;;;18.40;46.30;;;;;;4939480;29;20036;-71
2021/03/25 12:00:14;;;;;;;9.88;6.10;;;18.40;46.00;;;;;;4938716;29;20028;-72
2021/03/25 12:02:42;;;;;;;11.52;6.18;;;18.40;45.90;;;;;;4938927;29;20087;-70
2021/03/25 12:05:30;;;;;;;15.60;6.75;;;18.40;46.20;;;;;;4938807;29;20020;-73
2021/03/25 12:08:04;;;;;;;11.10;7.28;;;18.50;45.40;;;;;;4938914;29;20031;-75
2021/03/25 12:10:30;;;;;;;15.30;7.68;;;18.60;46.10;;;;;;4938614;29;20237;-72
2021/03/25 12:12:55;;;;;;;15.70;7.10;;;18.50;45.90;;;;;;4938215;29;20141;-71
2021/03/25 12:15:21;;;;;;;15.50;7.18;;;18.60;46.30;;;;;;4938605;29;20024;-75
2021/03/25 12:18:04;;;;;;;16.45;6.93;;;18.60;46.20;;;;;;4938662;29;20106;-72
2021/03/25 12:20:35;;;;;;;12.40;6.10;;;18.70;45.30;;;;;;4938145;29;20027;-74
2021/03/25 12:23:18;;;;;;;13.50;6.80;;;18.70;44.90;;;;;;4938262;29;20489;-75
2021/03/25 12:25:45;;;;;;;12.02;6.30;;;18.70;44.80;;;;;;4938380;29;20480;-71
2021/03/25 12:28:11;;;;;;;11.50;6.68;;;18.70;45.50;;;;;;4938324;29;20071;-71
2021/03/25 12:30:38;;;;;;;16.45;5.70;;;18.80;45.60;;;;;;4938149;29;20035;-73
2021/03/25 12:33:04;;;;;;;11.57;5.72;;;18.70;45.10;;;;;;4938380;29;20019;-71
2021/03/25 12:35:30;;;;;;;15.60;6.15;;;18.70;44.60;;;;;;4938237;29;20119;-71
2021/03/25 12:37:55;;;;;;;11.00;5.60;;;18.70;44.70;;;;;;4938207;29;20103;-70
2021/03/25 12:40:25;;;;;;;15.88;6.68;;;18.90;44.20;;;;;;4937865;29;20100;-70
2021/03/25 12:42:53;;;;;;;10.88;5.70;;;18.90;44.20;;;;;;4937922;29;20030;-70
2021/03/25 12:45:35;;;;;;;12.05;6.40;;;19.00;44.20;;;;;;4937694;29;20481;-71
2021/03/25 12:48:00;;;;;;;14.00;5.78;;;19.00;43.50;;;;;;4937815;29;20125;-73
2021/03/25 12:50:27;;;;;;;15.95;5.97;;;19.00;43.90;;;;;;4937601;29;20051;-73
2021/03/25 12:52:53;;;;;;;16.58;6.05;;;19.00;43.60;;;;;;4937876;29;20432;-71
2021/03/25 12:55:19;;;;;;;13.80;5.32;;;19.00;43.80;;;;;;4937424;29;20035;-72
2021/03/25 12:57:50;;;;;;;9.68;5.22;;;19.10;43.40;;;;;;4937948;29;20035;-71
2021/03/25 13:00:36;;;;;;;11.10;5.18;;;19.20;43.50;;;;;;4937692;29;20071;-73
2021/03/25 13:03:03;;;;;;;10.75;5.35;;;19.20;42.20;;;;;;4937638;29;20035;-70
2021/03/25 13:05:29;;;;;;;21.65;6.13;;;19.20;42.60;;;;;;4937682;29;20098;-72
2021/03/25 13:07:55;;;;;;;12.65;5.45;;;19.20;42.10;;;;;;4937476;29;20094;-71
2021/03/25 13:10:26;;;;;;;11.75;5.30;;;19.30;42.10;;;;;;4937309;29;20066;-71
2021/03/25 13:12:52;;;;;;;14.45;5.50;;;19.30;42.40;;;;;;4937493;29;20027;-73
2021/03/25 13:15:20;;;;;;;12.25;5.95;;;19.20;42.40;;;;;;4937525;29;20441;-74
2021/03/25 13:17:46;;;;;;;8.70;5.45;;;19.20;42.60;;;;;;4937063;29;20039;-71
2021/03/25 13:20:13;;;;;;;13.35;5.93;;;19.20;42.60;;;;;;4937159;29;20034;-71
2021/03/25 13:22:39;;;;;;;13.85;5.97;;;19.20;42.50;;;;;;4936878;29;20103;-70